createdAt,value
2022-10-31T00:01:16.708Z,13.10
2022-10-31T00:03:45.342Z,13.10
2022-10-31T00:06:13.352Z,13.00
2022-10-31T00:08:41.443Z,13.00
2022-10-31T00:11:11.325Z,13.00
2022-10-31T00:13:39.565Z,12.90
2022-10-31T00:16:16.208Z,13.00
2022-10-31T00:18:44.518Z,12.90
2022-10-31T00:21:12.612Z,12.90
2022-10-31T00:23:40.703Z,12.90
2022-10-31T00:26:08.770Z,12.80
2022-10-31T00:28:36.890Z,12.80
2022-10-31T00:42:38.295Z,12.70
2022-10-31T00:45:06.770Z,12.60
2022-10-31T00:47:34.844Z,12.60
2022-10-31T00:50:02.961Z,12.60
2022-10-31T00:52:31.000Z,12.60
2022-10-31T00:54:59.062Z,12.60
2022-10-31T00:57:27.164Z,12.50
2022-10-31T00:59:56.536Z,12.40
2022-10-31T01:02:24.762Z,12.30
2022-10-31T01:04:52.923Z,12.30
2022-10-31T01:07:20.990Z,12.30
2022-10-31T01:09:49.189Z,12.30
2022-10-31T01:12:17.461Z,12.20
2022-10-31T01:14:46.516Z,12.20
2022-10-31T01:17:16.436Z,12.20
2022-10-31T01:19:44.544Z,12.10
2022-10-31T01:22:12.615Z,12.10
2022-10-31T01:24:40.625Z,12.10
2022-10-31T01:27:08.705Z,12.10
2022-10-31T01:29:36.861Z,12.20
2022-10-31T01:32:05.134Z,12.20
2022-10-31T01:34:34.560Z,12.20
2022-10-31T01:37:02.800Z,12.20
2022-10-31T01:39:30.982Z,12.20
2022-10-31T01:41:59.057Z,12.20
2022-10-31T01:44:51.837Z,12.20
2022-10-31T01:47:28.184Z,12.10
2022-10-31T01:50:00.092Z,12.10
2022-10-31T01:52:33.010Z,12.00
2022-10-31T01:55:04.483Z,12.00
2022-10-31T01:57:35.010Z,12.00
2022-10-31T02:00:06.765Z,12.00
2022-10-31T02:02:35.194Z,12.10
2022-10-31T02:05:09.986Z,12.10
2022-10-31T02:07:43.989Z,12.10
2022-10-31T02:10:12.283Z,12.10
2022-10-31T02:12:41.385Z,12.10
2022-10-31T02:15:11.506Z,12.10
2022-10-31T02:17:39.707Z,12.10
2022-10-31T02:20:17.563Z,12.20
2022-10-31T02:23:16.823Z,12.20
2022-10-31T02:26:03.285Z,12.30
2022-10-31T02:29:00.585Z,12.30
2022-10-31T02:31:37.199Z,12.30
2022-10-31T02:34:12.517Z,12.30
2022-10-31T02:36:46.160Z,12.30
2022-10-31T02:39:20.847Z,12.30
2022-10-31T02:41:54.399Z,12.30
2022-10-31T02:44:30.423Z,12.30
2022-10-31T02:47:03.537Z,12.20
2022-10-31T02:49:37.477Z,12.20
2022-10-31T02:52:16.175Z,12.10
2022-10-31T02:54:45.557Z,12.20
2022-10-31T02:57:14.010Z,12.20
2022-10-31T02:59:48.485Z,12.20
2022-10-31T03:07:45.779Z,12.00
2022-10-31T03:10:19.611Z,11.90
2022-10-31T03:12:54.733Z,11.90
2022-10-31T03:15:28.693Z,11.90
2022-10-31T03:18:02.973Z,11.80
2022-10-31T03:20:35.685Z,11.80
2022-10-31T03:23:06.630Z,11.70
2022-10-31T03:25:37.622Z,11.70
2022-10-31T03:28:07.771Z,11.60
2022-10-31T03:30:40.177Z,11.60
2022-10-31T03:33:15.135Z,11.60
2022-10-31T03:35:47.099Z,11.60
2022-10-31T03:38:17.502Z,11.60
2022-10-31T03:40:48.297Z,11.60
2022-10-31T03:43:20.531Z,11.60
2022-10-31T03:45:49.464Z,11.50
2022-10-31T03:48:20.486Z,11.50
2022-10-31T03:51:00.738Z,11.60
2022-10-31T03:53:35.885Z,11.50
2022-10-31T03:56:09.652Z,11.40
2022-10-31T03:58:43.743Z,11.40
2022-10-31T04:01:16.991Z,11.30
2022-10-31T04:03:46.677Z,11.30
2022-10-31T04:06:17.641Z,11.30
2022-10-31T04:08:50.851Z,11.30
2022-10-31T04:11:21.936Z,11.30
2022-10-31T04:13:51.450Z,11.30
2022-10-31T04:16:20.677Z,11.20
2022-10-31T04:18:48.773Z,11.20
2022-10-31T04:21:17.645Z,11.20
2022-10-31T04:23:47.032Z,11.10
2022-10-31T04:26:15.348Z,11.20
2022-10-31T04:28:43.384Z,11.10
2022-10-31T04:31:12.711Z,11.20
2022-10-31T04:33:41.195Z,11.30
2022-10-31T04:36:09.727Z,11.30
2022-10-31T04:38:37.787Z,11.40
2022-10-31T04:41:07.394Z,11.40
2022-10-31T04:43:35.501Z,11.40
2022-10-31T04:46:03.825Z,11.40
2022-10-31T04:48:31.885Z,11.40
2022-10-31T04:51:03.684Z,11.30
2022-10-31T04:53:31.814Z,11.30
2022-10-31T04:56:00.311Z,11.30
2022-10-31T04:58:30.085Z,11.30
2022-10-31T05:08:40.209Z,11.10
2022-10-31T05:11:08.293Z,11.10
2022-10-31T05:13:37.656Z,11.20
2022-10-31T05:16:06.073Z,11.20
2022-10-31T05:18:34.107Z,11.20
2022-10-31T05:21:02.193Z,11.20
2022-10-31T05:23:30.261Z,11.10
2022-10-31T05:25:58.247Z,11.10
2022-10-31T05:28:26.276Z,11.10
2022-10-31T05:30:55.731Z,11.00
2022-10-31T05:33:23.705Z,10.90
2022-10-31T05:35:51.770Z,10.80
2022-10-31T05:38:19.806Z,10.80
2022-10-31T05:40:47.854Z,10.80
2022-10-31T05:43:16.146Z,10.80
2022-10-31T05:45:44.159Z,10.90
2022-10-31T05:48:13.599Z,10.80
2022-10-31T05:50:41.706Z,10.90
2022-10-31T05:53:10.325Z,10.80
2022-10-31T05:55:38.371Z,10.70
2022-10-31T05:58:06.486Z,10.70
2022-10-31T06:00:36.010Z,10.70
2022-10-31T06:03:06.166Z,10.60
2022-10-31T06:05:35.840Z,10.60
2022-10-31T06:08:04.440Z,10.70
2022-10-31T06:10:32.829Z,10.70
2022-10-31T06:13:00.893Z,10.70
2022-10-31T06:15:29.058Z,10.80
2022-10-31T06:18:02.209Z,10.70
2022-10-31T06:20:30.580Z,10.70
2022-10-31T06:23:00.478Z,10.80
2022-10-31T06:25:28.855Z,10.80
2022-10-31T06:27:58.082Z,10.80
2022-10-31T06:30:26.221Z,10.70
2022-10-31T06:32:54.410Z,10.70
2022-10-31T06:35:22.741Z,10.80
2022-10-31T06:37:54.439Z,10.70
2022-10-31T06:40:24.809Z,10.80
2022-10-31T06:42:59.216Z,10.80
2022-10-31T06:45:27.552Z,10.80
2022-10-31T06:48:16.030Z,10.80
2022-10-31T06:50:44.316Z,10.70
2022-10-31T06:53:12.720Z,10.70
2022-10-31T06:55:43.062Z,10.60
2022-10-31T06:58:12.980Z,10.60
2022-10-31T07:00:41.116Z,10.60
2022-10-31T07:03:11.696Z,10.60
2022-10-31T07:05:39.975Z,10.70
2022-10-31T07:08:09.813Z,10.80
2022-10-31T07:10:40.743Z,10.90
2022-10-31T07:13:14.039Z,11.00
2022-10-31T07:15:43.556Z,11.20
2022-10-31T07:18:13.714Z,11.40
2022-10-31T07:20:41.755Z,11.60
2022-10-31T07:23:11.650Z,11.70
2022-10-31T07:25:39.827Z,11.90
2022-10-31T07:28:08.402Z,12.00
2022-10-31T07:30:38.650Z,12.30
2022-10-31T07:33:07.248Z,12.70
2022-10-31T07:35:35.886Z,13.10
2022-10-31T07:38:11.494Z,13.70
2022-10-31T07:40:39.960Z,14.40
2022-10-31T07:43:11.662Z,15.00
2022-10-31T07:45:43.819Z,15.20
2022-10-31T07:48:11.866Z,15.70
2022-10-31T07:50:40.261Z,16.00
2022-10-31T07:53:10.208Z,16.60
2022-10-31T07:55:38.436Z,17.00
2022-10-31T07:58:07.807Z,17.60
2022-10-31T08:00:37.146Z,18.20
2022-10-31T08:03:09.390Z,18.80
2022-10-31T08:05:37.810Z,19.30
2022-10-31T08:08:07.184Z,19.50
2022-10-31T08:10:36.250Z,19.80
2022-10-31T08:13:06.432Z,19.90
2022-10-31T08:15:35.291Z,20.30
2022-10-31T08:18:03.742Z,20.30
2022-10-31T08:20:33.292Z,20.30
2022-10-31T08:23:02.837Z,20.20
2022-10-31T08:25:35.649Z,20.50
2022-10-31T08:28:07.190Z,20.80
2022-10-31T08:30:37.474Z,21.00
2022-10-31T08:33:07.175Z,21.40
2022-10-31T08:35:36.662Z,21.40
2022-10-31T08:38:05.008Z,22.20
2022-10-31T08:40:36.026Z,22.20
2022-10-31T08:43:05.935Z,22.10
2022-10-31T08:45:35.250Z,21.80
2022-10-31T08:48:05.505Z,21.80
2022-10-31T08:50:36.568Z,21.90
2022-10-31T08:53:06.088Z,22.00
2022-10-31T08:55:35.970Z,21.70
2022-10-31T08:58:05.278Z,21.90
2022-10-31T09:00:33.826Z,22.00
2022-10-31T09:03:04.019Z,21.80
2022-10-31T09:05:32.370Z,21.60
2022-10-31T09:08:03.998Z,21.50
2022-10-31T09:10:33.831Z,21.30
2022-10-31T09:13:05.216Z,21.40
2022-10-31T09:15:33.294Z,21.20
2022-10-31T09:18:01.863Z,21.50
2022-10-31T09:20:30.628Z,21.50
2022-10-31T09:22:59.794Z,20.70
2022-10-31T09:25:30.095Z,20.10
2022-10-31T09:27:59.975Z,19.40
2022-10-31T09:30:30.564Z,18.70
2022-10-31T09:32:59.176Z,18.40
2022-10-31T09:35:27.832Z,18.10
2022-10-31T09:38:00.112Z,17.90
2022-10-31T09:40:34.736Z,17.80
2022-10-31T09:43:12.660Z,17.70
2022-10-31T09:45:48.239Z,17.60
2022-10-31T09:48:29.808Z,17.40
2022-10-31T09:51:02.326Z,17.20
2022-10-31T09:53:37.070Z,17.20
2022-10-31T09:56:09.472Z,17.10
2022-10-31T09:58:43.613Z,17.00
2022-10-31T10:01:35.355Z,17.20
2022-10-31T10:04:19.830Z,17.40
2022-10-31T10:06:52.364Z,17.40
2022-10-31T10:09:23.070Z,17.40
2022-10-31T10:12:02.528Z,17.30
2022-10-31T10:14:42.082Z,17.20
2022-10-31T10:17:27.961Z,17.20
2022-10-31T10:20:20.581Z,17.20
2022-10-31T10:22:54.655Z,17.10
2022-10-31T10:25:25.480Z,17.10
2022-10-31T10:28:09.076Z,17.10
2022-10-31T10:30:42.419Z,17.00
2022-10-31T10:33:14.110Z,17.20
2022-10-31T10:35:46.749Z,17.10
2022-10-31T10:38:20.210Z,17.10
2022-10-31T10:40:49.188Z,16.90
2022-10-31T10:43:30.835Z,16.70
2022-10-31T10:46:26.038Z,16.70
2022-10-31T10:49:00.190Z,16.90
2022-10-31T10:54:58.911Z,16.90
2022-10-31T10:57:40.373Z,17.30
2022-10-31T11:00:22.044Z,17.30
2022-10-31T11:02:50.619Z,17.20
2022-10-31T11:05:30.166Z,17.00
2022-10-31T11:07:58.283Z,16.80
2022-10-31T11:10:26.580Z,16.80
2022-10-31T11:13:05.834Z,16.80
2022-10-31T11:15:41.942Z,16.80
2022-10-31T11:18:22.438Z,16.90
2022-10-31T11:20:54.464Z,17.00
2022-10-31T11:23:24.388Z,17.00
2022-10-31T11:25:55.992Z,17.00
2022-10-31T11:28:24.651Z,16.90
2022-10-31T11:30:57.351Z,17.00
2022-10-31T11:33:31.909Z,17.10
2022-10-31T11:36:00.696Z,17.20
2022-10-31T11:38:35.588Z,17.20
2022-10-31T11:41:12.394Z,17.60
2022-10-31T11:43:47.380Z,17.60
2022-10-31T11:46:28.838Z,17.60
2022-10-31T11:48:58.090Z,17.80
2022-10-31T11:51:31.774Z,17.80
2022-10-31T11:54:03.453Z,18.20
2022-10-31T11:56:41.223Z,18.30
2022-10-31T11:59:23.039Z,18.10
2022-10-31T12:01:54.167Z,18.00
2022-10-31T12:04:29.674Z,18.20
2022-10-31T12:06:57.785Z,18.30
2022-10-31T12:09:28.908Z,18.30
2022-10-31T12:12:22.962Z,18.30
2022-10-31T12:15:03.785Z,18.30
2022-10-31T12:17:40.216Z,18.40
2022-10-31T12:20:21.074Z,18.30
2022-10-31T12:23:00.097Z,18.30
2022-10-31T12:25:39.791Z,18.30
2022-10-31T12:28:40.047Z,18.20
2022-10-31T12:31:33.505Z,18.40
2022-10-31T12:34:18.989Z,18.10
2022-10-31T12:36:57.384Z,18.30
2022-10-31T12:39:38.499Z,18.60
2022-10-31T12:42:17.172Z,18.10
2022-10-31T12:45:07.627Z,18.00
2022-10-31T12:47:57.478Z,18.30
2022-10-31T12:50:37.138Z,18.60
2022-10-31T12:53:23.382Z,18.60
2022-10-31T12:56:04.286Z,18.50
2022-10-31T12:58:35.982Z,18.30
2022-10-31T13:01:10.313Z,18.30
2022-10-31T13:03:46.651Z,18.30
2022-10-31T13:06:21.707Z,18.30
2022-10-31T13:08:54.350Z,18.30
2022-10-31T13:11:26.685Z,18.30
2022-10-31T13:14:02.177Z,18.30
2022-10-31T13:16:35.048Z,18.40
2022-10-31T13:19:07.776Z,18.30
2022-10-31T13:21:41.401Z,18.30
2022-10-31T13:24:16.017Z,18.40
2022-10-31T13:26:49.415Z,18.40
2022-10-31T13:29:26.912Z,18.40
2022-10-31T13:31:58.137Z,18.40
2022-10-31T13:34:31.328Z,18.40
2022-10-31T13:37:08.281Z,18.40
2022-10-31T13:39:48.957Z,18.40
2022-10-31T13:42:25.459Z,18.50
2022-10-31T13:44:53.566Z,18.50
2022-10-31T13:47:28.233Z,18.50
2022-10-31T13:50:08.297Z,18.50
2022-10-31T13:52:38.315Z,18.50
2022-10-31T13:55:29.141Z,18.50
2022-10-31T13:57:58.368Z,18.60
2022-10-31T14:00:28.882Z,18.60
2022-10-31T14:02:59.712Z,18.50
2022-10-31T14:05:30.589Z,18.50
2022-10-31T14:08:02.702Z,18.40
2022-10-31T14:10:34.627Z,18.40
2022-10-31T14:13:09.409Z,18.30
2022-10-31T14:15:40.266Z,18.30
2022-10-31T14:18:21.745Z,18.20
2022-10-31T14:20:49.877Z,18.10
2022-10-31T14:23:41.458Z,18.20
2022-10-31T14:26:20.814Z,18.00
2022-10-31T14:28:50.548Z,18.10
2022-10-31T14:31:37.929Z,18.10
2022-10-31T14:34:22.289Z,18.10
2022-10-31T14:37:12.734Z,18.10
2022-10-31T14:39:54.431Z,17.90
2022-10-31T14:42:36.351Z,17.90
2022-10-31T14:45:20.031Z,18.00
2022-10-31T14:48:01.475Z,18.00
2022-10-31T14:50:50.926Z,17.90
2022-10-31T14:53:24.273Z,17.90
2022-10-31T14:55:55.863Z,17.90
2022-10-31T14:58:27.650Z,17.80
2022-10-31T15:00:58.342Z,17.80
2022-10-31T15:03:33.695Z,17.70
2022-10-31T15:06:05.375Z,17.60
2022-10-31T15:08:43.394Z,17.40
2022-10-31T15:11:18.576Z,17.30
2022-10-31T15:13:49.058Z,17.40
2022-10-31T15:16:21.033Z,17.20
2022-10-31T15:18:52.540Z,17.30
2022-10-31T15:21:23.669Z,17.30
2022-10-31T15:23:54.466Z,17.30
2022-10-31T15:26:28.034Z,17.20
2022-10-31T15:29:03.351Z,17.30
2022-10-31T15:31:32.667Z,17.30
2022-10-31T15:34:06.329Z,17.30
2022-10-31T15:36:38.388Z,17.40
2022-10-31T15:39:07.042Z,17.40
2022-10-31T15:41:54.141Z,17.40
2022-10-31T15:44:26.636Z,17.30
2022-10-31T15:46:56.964Z,17.30
2022-10-31T15:49:34.642Z,17.30
2022-10-31T15:52:11.778Z,17.20
2022-10-31T15:54:47.081Z,17.20
2022-10-31T15:57:17.211Z,17.20
2022-10-31T15:59:50.006Z,17.10
2022-10-31T16:02:21.974Z,17.00
2022-10-31T16:04:51.749Z,17.00
2022-10-31T16:07:23.457Z,16.90
2022-10-31T16:09:56.967Z,16.90
2022-10-31T16:12:29.789Z,16.90
2022-10-31T16:14:58.123Z,16.90
2022-10-31T16:17:28.539Z,16.80
2022-10-31T16:20:00.165Z,16.90
2022-10-31T16:22:31.736Z,16.90
2022-10-31T16:25:03.819Z,16.80
2022-10-31T16:27:36.010Z,16.70
2022-10-31T16:30:26.644Z,16.70
2022-10-31T16:32:56.560Z,16.60
2022-10-31T16:35:28.676Z,16.60
2022-10-31T16:37:57.223Z,16.50
2022-10-31T16:40:26.134Z,16.40
2022-10-31T16:42:58.311Z,16.40
2022-10-31T16:45:28.218Z,16.40
2022-10-31T16:48:03.713Z,16.40
2022-10-31T16:50:31.876Z,16.40
2022-10-31T16:53:13.527Z,16.40
2022-10-31T16:55:46.646Z,16.40
2022-10-31T16:58:25.267Z,16.30
2022-10-31T17:00:54.568Z,16.20
2022-10-31T17:03:22.915Z,16.20
2022-10-31T17:05:52.156Z,16.10
2022-10-31T17:08:20.387Z,16.10
2022-10-31T17:10:50.060Z,16.00
2022-10-31T17:13:23.252Z,16.00
2022-10-31T17:15:54.984Z,16.00
2022-10-31T17:18:27.371Z,16.00
2022-10-31T17:20:59.788Z,16.10
2022-10-31T17:23:28.922Z,16.20
2022-10-31T17:25:57.260Z,16.20
2022-10-31T17:28:27.630Z,16.40
2022-10-31T17:30:58.440Z,16.40
2022-10-31T17:33:26.735Z,16.40
2022-10-31T17:35:54.937Z,16.50
2022-10-31T17:38:22.992Z,16.50
2022-10-31T17:40:51.098Z,16.60
2022-10-31T17:43:19.305Z,16.60
2022-10-31T17:45:49.028Z,16.50
2022-10-31T17:48:17.088Z,16.50
2022-10-31T17:50:45.160Z,16.50
2022-10-31T17:53:13.234Z,16.50
2022-10-31T17:55:41.317Z,16.50
2022-10-31T17:58:12.210Z,16.60
2022-10-31T18:00:41.346Z,16.50
2022-10-31T18:03:10.984Z,16.40
2022-10-31T18:05:39.078Z,16.40
2022-10-31T18:08:07.116Z,16.40
2022-10-31T18:10:35.273Z,16.30
2022-10-31T18:13:03.582Z,16.30
2022-10-31T18:15:31.923Z,16.20
2022-10-31T18:18:00.337Z,16.20
2022-10-31T18:20:30.115Z,16.20
2022-10-31T18:22:58.190Z,16.30
2022-10-31T18:25:26.324Z,16.30
2022-10-31T18:27:54.353Z,16.30
2022-10-31T18:30:22.416Z,16.30
2022-10-31T18:32:51.349Z,16.30
2022-10-31T18:35:20.067Z,16.20
2022-10-31T18:37:49.545Z,16.30
2022-10-31T18:40:17.882Z,16.20
2022-10-31T18:42:45.926Z,16.30
2022-10-31T18:45:31.357Z,16.30
2022-10-31T18:48:02.054Z,16.20
2022-10-31T18:50:30.523Z,16.10
2022-10-31T18:53:00.167Z,16.10
2022-10-31T18:55:28.460Z,16.10
2022-10-31T18:57:56.524Z,16.20
2022-10-31T19:00:24.704Z,16.20
2022-10-31T19:02:56.168Z,16.30
2022-10-31T19:05:24.610Z,16.30
2022-10-31T19:07:52.724Z,16.30
2022-10-31T19:14:43.126Z,16.20
2022-10-31T19:17:11.375Z,16.00
2022-10-31T19:19:39.536Z,16.00
2022-10-31T19:22:07.578Z,16.00
2022-10-31T19:24:35.622Z,15.90
2022-10-31T19:27:04.180Z,15.90
2022-10-31T19:29:32.249Z,15.90
2022-10-31T19:32:01.762Z,15.90
2022-10-31T19:34:29.768Z,15.90
2022-10-31T19:36:57.797Z,15.90
2022-10-31T19:39:25.917Z,15.90
2022-10-31T19:41:53.939Z,15.90
2022-10-31T19:44:22.211Z,15.90
2022-10-31T19:46:54.053Z,15.90
2022-10-31T19:49:23.802Z,15.80
2022-10-31T19:51:52.198Z,15.80
2022-10-31T19:54:20.532Z,15.80
2022-10-31T19:56:48.567Z,15.70
2022-10-31T19:59:16.859Z,15.80
2022-10-31T20:01:45.084Z,15.70
2022-10-31T20:04:13.331Z,15.80
2022-10-31T20:06:42.905Z,15.80
2022-10-31T20:09:14.063Z,15.80
2022-10-31T20:11:43.699Z,15.80
2022-10-31T20:14:13.996Z,15.80
2022-10-31T20:16:42.613Z,15.80
2022-10-31T20:19:10.750Z,15.70
2022-10-31T20:21:41.262Z,15.80
2022-10-31T20:24:12.080Z,15.70
2022-10-31T20:26:41.743Z,15.70
2022-10-31T20:33:56.723Z,15.70
2022-10-31T20:36:25.411Z,15.60
2022-10-31T20:46:57.258Z,15.60
2022-10-31T20:49:25.310Z,15.70
2022-10-31T20:51:53.361Z,15.80
2022-10-31T20:54:21.471Z,15.80
2022-10-31T20:56:49.590Z,15.80
2022-10-31T20:59:19.432Z,15.70
2022-10-31T21:01:47.670Z,15.70
2022-10-31T21:04:17.196Z,15.70
2022-10-31T21:06:49.285Z,15.70
2022-10-31T21:09:18.036Z,15.70
2022-10-31T21:11:46.120Z,15.70
2022-10-31T21:14:14.245Z,15.70
2022-10-31T21:16:42.314Z,15.60
2022-10-31T21:19:10.346Z,15.70
2022-10-31T21:21:39.797Z,15.70
2022-10-31T21:24:09.709Z,15.70
2022-10-31T21:26:39.971Z,15.80
2022-10-31T21:29:08.640Z,15.80
2022-10-31T21:31:37.872Z,15.80
2022-10-31T21:34:07.734Z,15.80
2022-10-31T21:36:36.227Z,15.80
2022-10-31T21:39:06.671Z,15.70
2022-10-31T21:41:34.940Z,15.80
2022-10-31T21:44:03.263Z,15.80
2022-10-31T21:46:33.119Z,15.70
2022-10-31T21:49:03.225Z,15.80
2022-10-31T21:51:33.847Z,15.70
2022-10-31T21:54:21.926Z,15.70
2022-10-31T21:56:52.029Z,15.60
2022-10-31T21:59:20.627Z,15.60
2022-10-31T22:01:48.833Z,15.60
2022-10-31T22:04:17.057Z,15.60
2022-10-31T22:06:45.592Z,15.60
2022-10-31T22:09:15.992Z,15.60
2022-10-31T22:11:44.638Z,15.60
2022-10-31T22:14:15.610Z,15.60
2022-10-31T22:16:43.932Z,15.70
2022-10-31T22:19:13.722Z,15.70
2022-10-31T22:21:43.081Z,15.70
2022-10-31T22:24:11.817Z,15.70
2022-10-31T22:26:40.691Z,15.70
2022-10-31T22:29:13.612Z,15.70
2022-10-31T22:31:44.234Z,15.80
2022-10-31T22:34:13.629Z,15.70
2022-10-31T22:36:42.464Z,15.70
2022-10-31T22:39:11.903Z,15.60
2022-10-31T22:41:40.392Z,15.60
2022-10-31T22:44:08.548Z,15.60
2022-10-31T22:46:40.228Z,15.50
2022-10-31T22:49:11.328Z,15.50
2022-10-31T22:51:40.637Z,15.50
2022-10-31T22:54:12.527Z,15.50
2022-10-31T22:56:40.682Z,15.50
2022-10-31T22:59:09.006Z,15.50
2022-10-31T23:01:38.552Z,15.60
2022-10-31T23:04:06.819Z,15.70
2022-10-31T23:06:34.957Z,15.80
2022-10-31T23:09:07.275Z,15.80
2022-10-31T23:11:37.036Z,15.90
2022-10-31T23:14:09.236Z,15.90
2022-10-31T23:16:42.664Z,16.00
2022-10-31T23:19:12.675Z,16.00
2022-10-31T23:22:00.315Z,16.00
2022-10-31T23:24:33.515Z,15.90
2022-10-31T23:27:11.241Z,16.00
2022-10-31T23:29:43.279Z,16.00
2022-10-31T23:32:16.145Z,16.00
2022-10-31T23:34:44.534Z,15.90
2022-10-31T23:37:12.961Z,16.00
2022-10-31T23:39:41.104Z,16.00
2022-10-31T23:42:09.330Z,15.90
2022-10-31T23:44:37.546Z,15.90
2022-10-31T23:47:06.035Z,16.00
2022-10-31T23:49:35.851Z,16.00
2022-10-31T23:52:04.637Z,16.00
2022-10-31T23:54:33.554Z,15.90
2022-10-31T23:57:01.934Z,15.90
2022-10-31T23:59:30.337Z,15.90
